Terminal Aerodrome Forecast
Issued by NWS Jackson, MS

Home | Current Version | Previous Version | Text Only | Print | Product List | Glossary On
Versions: 1 2 3 4 5 6 7 8 9 10 11 12
000
FTUS44 KJAN 301720
TAFMEI
TAF
KMEI 301720Z 3018/3118 10005KT P6SM VCSH SCT030 BKN050
     FM302000 08004KT P6SM VCTS SCT050CB BKN070
     FM310100 06003KT P6SM SCT100
     FM311000 00000KT 4SM BR SKC
     FM311300 31005KT P6SM SKC=

USA.gov is the U.S. government's official web portal to all federal, state and local government web resources and services.